sensor_id;sensor_type;location;lat;lon;timestamp;pressure;altitude;pressure_sealevel;temperature;humidity
5500;BME280;2772;42.700;23.304;2023-01-28T00:00:18;94484.25;;;2.95;100.00
5500;BME280;2772;42.700;23.304;2023-01-28T00:02:46;94490.06;;;2.92;100.00
5500;BME280;2772;42.700;23.304;2023-01-28T00:05:14;94493.94;;;3.00;100.00
5500;BME280;2772;42.700;23.304;2023-01-28T00:07:40;94481.59;;;3.00;100.00
5500;BME280;2772;42.700;23.304;2023-01-28T00:10:08;94498.50;;;2.89;100.00
5500;BME280;2772;42.700;23.304;2023-01-28T00:12:35;94503.84;;;2.79;100.00
5500;BME280;2772;42.700;23.304;2023-01-28T00:15:01;94509.66;;;2.71;100.00
5500;BME280;2772;42.700;23.304;2023-01-28T00:17:30;94509.84;;;2.80;100.00
5500;BME280;2772;42.700;23.304;2023-01-28T00:19:56;94509.59;;;2.81;100.00
5500;BME280;2772;42.700;23.304;2023-01-28T00:22:23;94505.38;;;2.85;100.00
5500;BME280;2772;42.700;23.304;2023-01-28T00:24:50;94512.22;;;2.81;100.00
5500;BME280;2772;42.700;23.304;2023-01-28T00:27:16;94511.34;;;2.96;100.00
5500;BME280;2772;42.700;23.304;2023-01-28T00:29:43;94505.13;;;2.82;100.00
5500;BME280;2772;42.700;23.304;2023-01-28T00:32:10;94509.88;;;2.75;100.00
5500;BME280;2772;42.700;23.304;2023-01-28T00:34:38;94518.03;;;2.73;100.00
5500;BME280;2772;42.700;23.304;2023-01-28T00:37:05;94518.84;;;2.74;100.00
5500;BME280;2772;42.700;23.304;2023-01-28T00:39:31;94523.88;;;2.65;100.00
5500;BME280;2772;42.700;23.304;2023-01-28T00:41:58;94526.78;;;2.64;100.00
5500;BME280;2772;42.700;23.304;2023-01-28T00:44:25;94524.72;;;2.56;100.00
5500;BME280;2772;42.700;23.304;2023-01-28T00:46:51;94522.81;;;2.71;100.00
5500;BME280;2772;42.700;23.304;2023-01-28T00:49:18;94531.97;;;2.74;100.00
5500;BME280;2772;42.700;23.304;2023-01-28T00:51:46;94529.56;;;2.82;100.00
5500;BME280;2772;42.700;23.304;2023-01-28T00:54:14;94533.06;;;2.68;100.00
5500;BME280;2772;42.700;23.304;2023-01-28T00:56:41;94532.06;;;2.59;100.00
5500;BME280;2772;42.700;23.304;2023-01-28T00:59:07;94527.91;;;2.53;100.00
5500;BME280;2772;42.700;23.304;2023-01-28T01:01:34;94539.59;;;2.70;100.00
5500;BME280;2772;42.700;23.304;2023-01-28T01:04:01;94532.50;;;2.76;100.00
5500;BME280;2772;42.700;23.304;2023-01-28T01:06:28;94532.50;;;2.76;100.00
5500;BME280;2772;42.700;23.304;2023-01-28T01:08:57;94524.25;;;2.87;100.00
5500;BME280;2772;42.700;23.304;2023-01-28T01:11:24;94523.53;;;2.82;100.00
5500;BME280;2772;42.700;23.304;2023-01-28T01:13:52;94525.06;;;2.88;100.00
5500;BME280;2772;42.700;23.304;2023-01-28T01:16:19;94524.03;;;2.84;100.00
5500;BME280;2772;42.700;23.304;2023-01-28T01:18:46;94531.41;;;2.82;100.00
5500;BME280;2772;42.700;23.304;2023-01-28T01:21:15;94536.13;;;2.85;100.00
5500;BME280;2772;42.700;23.304;2023-01-28T01:23:43;94530.31;;;2.88;100.00
5500;BME280;2772;42.700;23.304;2023-01-28T01:26:12;94533.84;;;2.68;100.00
5500;BME280;2772;42.700;23.304;2023-01-28T01:28:40;94527.97;;;2.81;100.00
5500;BME280;2772;42.700;23.304;2023-01-28T01:31:09;94532.75;;;2.79;100.00
5500;BME280;2772;42.700;23.304;2023-01-28T01:33:38;94534.19;;;2.52;100.00
5500;BME280;2772;42.700;23.304;2023-01-28T01:36:06;94537.34;;;2.54;100.00
5500;BME280;2772;42.700;23.304;2023-01-28T01:38:33;94535.97;;;2.61;100.00
5500;BME280;2772;42.700;23.304;2023-01-28T01:41:00;94538.59;;;2.61;100.00
5500;BME280;2772;42.700;23.304;2023-01-28T01:43:46;94535.22;;;2.56;100.00
5500;BME280;2772;42.700;23.304;2023-01-28T01:46:14;94531.22;;;2.68;100.00
5500;BME280;2772;42.700;23.304;2023-01-28T01:48:43;94541.41;;;2.80;100.00
5500;BME280;2772;42.700;23.304;2023-01-28T01:51:12;94535.44;;;2.64;100.00
5500;BME280;2772;42.700;23.304;2023-01-28T01:53:42;94542.88;;;2.47;100.00
5500;BME280;2772;42.700;23.304;2023-01-28T01:56:14;94542.31;;;2.60;100.00
5500;BME280;2772;42.700;23.304;2023-01-28T01:58:44;94531.53;;;2.62;100.00
5500;BME280;2772;42.700;23.304;2023-01-28T02:01:14;94539.22;;;2.43;100.00
5500;BME280;2772;42.700;23.304;2023-01-28T02:03:47;94543.13;;;2.56;100.00
5500;BME280;2772;42.700;23.304;2023-01-28T02:06:18;94548.09;;;2.57;100.00
5500;BME280;2772;42.700;23.304;2023-01-28T02:08:45;94541.25;;;2.56;100.00
5500;BME280;2772;42.700;23.304;2023-01-28T02:11:13;94555.94;;;2.62;100.00
5500;BME280;2772;42.700;23.304;2023-01-28T02:13:46;94557.72;;;2.77;100.00
5500;BME280;2772;42.700;23.304;2023-01-28T02:16:16;94552.28;;;2.58;100.00
5500;BME280;2772;42.700;23.304;2023-01-28T02:18:43;94554.66;;;2.60;100.00
5500;BME280;2772;42.700;23.304;2023-01-28T02:21:42;94553.09;;;2.59;100.00
5500;BME280;2772;42.700;23.304;2023-01-28T02:27:16;94556.00;;;2.57;100.00
5500;BME280;2772;42.700;23.304;2023-01-28T02:29:53;94561.44;;;2.71;100.00
5500;BME280;2772;42.700;23.304;2023-01-28T02:32:26;94558.56;;;2.62;100.00
5500;BME280;2772;42.700;23.304;2023-01-28T02:35:00;94552.28;;;2.63;100.00
5500;BME280;2772;42.700;23.304;2023-01-28T02:37:33;94559.75;;;2.36;100.00
5500;BME280;2772;42.700;23.304;2023-01-28T02:40:08;94557.34;;;2.45;100.00
5500;BME280;2772;42.700;23.304;2023-01-28T02:42:37;94551.84;;;2.36;100.00
5500;BME280;2772;42.700;23.304;2023-01-28T02:45:16;94559.72;;;2.41;100.00
5500;BME280;2772;42.700;23.304;2023-01-28T02:47:46;94561.84;;;2.34;100.00
5500;BME280;2772;42.700;23.304;2023-01-28T02:50:28;94558.13;;;2.45;100.00
5500;BME280;2772;42.700;23.304;2023-01-28T02:53:09;94559.44;;;2.53;100.00
5500;BME280;2772;42.700;23.304;2023-01-28T02:56:04;94567.06;;;2.49;100.00
5500;BME280;2772;42.700;23.304;2023-01-28T02:58:36;94562.53;;;2.55;100.00
5500;BME280;2772;42.700;23.304;2023-01-28T03:01:14;94560.19;;;2.58;100.00
5500;BME280;2772;42.700;23.304;2023-01-28T03:03:54;94565.06;;;2.75;100.00
5500;BME280;2772;42.700;23.304;2023-01-28T03:06:27;94570.38;;;2.70;100.00
5500;BME280;2772;42.700;23.304;2023-01-28T03:08:58;94577.81;;;2.53;100.00
5500;BME280;2772;42.700;23.304;2023-01-28T03:11:46;94568.09;;;2.48;100.00
5500;BME280;2772;42.700;23.304;2023-01-28T03:14:33;94570.97;;;2.47;100.00
5500;BME280;2772;42.700;23.304;2023-01-28T03:17:23;94569.44;;;2.41;100.00
5500;BME280;2772;42.700;23.304;2023-01-28T03:20:10;94571.75;;;2.52;100.00
5500;BME280;2772;42.700;23.304;2023-01-28T03:22:56;94574.22;;;2.29;100.00
5500;BME280;2772;42.700;23.304;2023-01-28T03:25:46;94586.59;;;2.23;100.00
5500;BME280;2772;42.700;23.304;2023-01-28T03:28:34;94582.38;;;2.22;100.00
5500;BME280;2772;42.700;23.304;2023-01-28T03:31:21;94589.75;;;2.15;100.00
5500;BME280;2772;42.700;23.304;2023-01-28T03:34:09;94584.56;;;1.90;100.00
5500;BME280;2772;42.700;23.304;2023-01-28T03:36:54;94578.72;;;2.08;100.00
5500;BME280;2772;42.700;23.304;2023-01-28T03:39:24;94577.97;;;1.98;100.00
5500;BME280;2772;42.700;23.304;2023-01-28T03:41:56;94580.59;;;2.03;100.00
5500;BME280;2772;42.700;23.304;2023-01-28T03:44:24;94580.31;;;2.04;100.00
5500;BME280;2772;42.700;23.304;2023-01-28T03:47:08;94583.72;;;2.05;100.00
5500;BME280;2772;42.700;23.304;2023-01-28T03:49:40;94583.69;;;2.20;100.00
5500;BME280;2772;42.700;23.304;2023-01-28T03:52:07;94586.88;;;2.07;100.00
5500;BME280;2772;42.700;23.304;2023-01-28T03:54:34;94586.06;;;2.16;100.00
5500;BME280;2772;42.700;23.304;2023-01-28T03:57:01;94590.03;;;2.04;100.00
5500;BME280;2772;42.700;23.304;2023-01-28T03:59:28;94588.44;;;2.18;100.00
5500;BME280;2772;42.700;23.304;2023-01-28T04:01:54;94588.63;;;2.41;100.00
5500;BME280;2772;42.700;23.304;2023-01-28T04:04:21;94592.59;;;2.34;100.00
5500;BME280;2772;42.700;23.304;2023-01-28T04:06:53;94571.63;;;2.14;100.00
5500;BME280;2772;42.700;23.304;2023-01-28T04:09:21;94595.78;;;2.21;100.00
5500;BME280;2772;42.700;23.304;2023-01-28T04:11:48;94607.06;;;2.26;100.00
5500;BME280;2772;42.700;23.304;2023-01-28T04:14:16;94603.63;;;2.31;100.00
5500;BME280;2772;42.700;23.304;2023-01-28T04:16:43;94603.66;;;2.16;100.00
5500;BME280;2772;42.700;23.304;2023-01-28T04:19:10;94608.09;;;2.20;100.00
5500;BME280;2772;42.700;23.304;2023-01-28T04:21:38;94608.91;;;2.21;100.00
5500;BME280;2772;42.700;23.304;2023-01-28T04:24:07;94612.06;;;2.13;100.00
5500;BME280;2772;42.700;23.304;2023-01-28T04:26:34;94609.44;;;2.18;100.00
5500;BME280;2772;42.700;23.304;2023-01-28T04:29:01;94613.13;;;2.17;100.00
5500;BME280;2772;42.700;23.304;2023-01-28T04:31:28;94613.13;;;2.17;100.00
5500;BME280;2772;42.700;23.304;2023-01-28T04:33:55;94612.06;;;2.13;100.00
5500;BME280;2772;42.700;23.304;2023-01-28T04:36:22;94617.31;;;2.18;100.00
5500;BME280;2772;42.700;23.304;2023-01-28T04:38:49;94617.06;;;2.14;100.00
5500;BME280;2772;42.700;23.304;2023-01-28T04:41:17;94617.31;;;2.08;100.00
5500;BME280;2772;42.700;23.304;2023-01-28T04:43:44;94634.66;;;1.99;100.00
5500;BME280;2772;42.700;23.304;2023-01-28T04:46:13;94629.66;;;2.17;100.00
5500;BME280;2772;42.700;23.304;2023-01-28T04:48:40;94633.88;;;2.13;100.00
5500;BME280;2772;42.700;23.304;2023-01-28T04:51:07;94635.16;;;2.16;100.00
5500;BME280;2772;42.700;23.304;2023-01-28T04:53:34;94637.81;;;2.01;100.00
5500;BME280;2772;42.700;23.304;2023-01-28T04:56:01;94647.25;;;2.07;100.00
5500;BME280;2772;42.700;23.304;2023-01-28T04:58:29;94632.56;;;1.91;100.00
5500;BME280;2772;42.700;23.304;2023-01-28T05:00:56;94650.41;;;1.94;100.00
5500;BME280;2772;42.700;23.304;2023-01-28T05:03:23;94644.13;;;2.00;100.00
5500;BME280;2772;42.700;23.304;2023-01-28T05:05:50;94649.63;;;1.78;100.00
5500;BME280;2772;42.700;23.304;2023-01-28T05:08:17;94648.59;;;1.69;100.00
5500;BME280;2772;42.700;23.304;2023-01-28T05:10:44;94648.06;;;1.72;100.00
5500;BME280;2772;42.700;23.304;2023-01-28T05:13:11;94645.44;;;1.72;100.00
5500;BME280;2772;42.700;23.304;2023-01-28T05:15:40;94669.88;;;1.83;100.00
5500;BME280;2772;42.700;23.304;2023-01-28T05:18:06;94655.66;;;1.94;100.00
5500;BME280;2772;42.700;23.304;2023-01-28T05:20:33;94664.59;;;1.93;100.00
5500;BME280;2772;42.700;23.304;2023-01-28T05:23:00;94662.75;;;1.78;100.00
5500;BME280;2772;42.700;23.304;2023-01-28T05:25:27;94666.69;;;1.91;100.00
5500;BME280;2772;42.700;23.304;2023-01-28T05:27:53;94666.16;;;1.94;100.00
5500;BME280;2772;42.700;23.304;2023-01-28T05:30:20;94669.84;;;1.93;100.00
5500;BME280;2772;42.700;23.304;2023-01-28T05:32:49;94666.44;;;1.97;100.00
5500;BME280;2772;42.700;23.304;2023-01-28T05:35:19;94669.31;;;1.76;100.00
5500;BME280;2772;42.700;23.304;2023-01-28T05:37:46;94670.63;;;1.68;100.00
5500;BME280;2772;42.700;23.304;2023-01-28T05:40:13;94671.44;;;1.63;100.00
5500;BME280;2772;42.700;23.304;2023-01-28T05:42:40;94672.75;;;1.91;100.00
5500;BME280;2772;42.700;23.304;2023-01-28T05:45:08;94677.19;;;1.91;100.00
5500;BME280;2772;42.700;23.304;2023-01-28T05:47:35;94682.44;;;1.96;100.00
5500;BME280;2772;42.700;23.304;2023-01-28T05:50:04;94667.25;;;1.83;100.00
5500;BME280;2772;42.700;23.304;2023-01-28T05:52:31;94675.63;;;1.75;100.00
5500;BME280;2772;42.700;23.304;2023-01-28T05:54:57;94676.44;;;1.70;100.00
5500;BME280;2772;42.700;23.304;2023-01-28T05:57:25;94687.16;;;1.74;100.00
5500;BME280;2772;42.700;23.304;2023-01-28T05:59:52;94688.47;;;1.61;100.00
5500;BME280;2772;42.700;23.304;2023-01-28T06:02:19;94686.91;;;1.65;100.00
5500;BME280;2772;42.700;23.304;2023-01-28T06:04:46;94693.75;;;1.76;100.00
5500;BME280;2772;42.700;23.304;2023-01-28T06:07:14;94697.94;;;1.92;100.00
5500;BME280;2772;42.700;23.304;2023-01-28T06:09:44;94684.53;;;1.99;100.00
5500;BME280;2772;42.700;23.304;2023-01-28T06:12:11;94716.31;;;1.87;100.00
5500;BME280;2772;42.700;23.304;2023-01-28T06:14:38;94713.16;;;1.85;100.00
5500;BME280;2772;42.700;23.304;2023-01-28T06:17:05;94718.69;;;1.89;100.00
5500;BME280;2772;42.700;23.304;2023-01-28T06:19:32;94722.34;;;1.88;100.00
5500;BME280;2772;42.700;23.304;2023-01-28T06:21:58;94719.72;;;1.88;100.00
5500;BME280;2772;42.700;23.304;2023-01-28T06:24:26;94729.19;;;2.04;100.00
5500;BME280;2772;42.700;23.304;2023-01-28T06:26:53;94726.31;;;1.95;100.00
5500;BME280;2772;42.700;23.304;2023-01-28T06:29:20;94733.91;;;1.97;100.00
5500;BME280;2772;42.700;23.304;2023-01-28T06:31:47;94739.44;;;2.05;100.00
5500;BME280;2772;42.700;23.304;2023-01-28T06:34:14;94742.06;;;2.05;100.00
5500;BME280;2772;42.700;23.304;2023-01-28T06:36:40;94744.69;;;2.10;100.00
5500;BME280;2772;42.700;23.304;2023-01-28T06:39:07;94746.00;;;2.13;100.00
5500;BME280;2772;42.700;23.304;2023-01-28T06:41:35;94751.78;;;2.15;100.00
5500;BME280;2772;42.700;23.304;2023-01-28T06:44:02;94758.34;;;2.22;100.00
5500;BME280;2772;42.700;23.304;2023-01-28T06:46:29;94761.22;;;2.06;100.00
5500;BME280;2772;42.700;23.304;2023-01-28T06:48:55;94763.59;;;2.07;100.00
5500;BME280;2772;42.700;23.304;2023-01-28T06:51:22;94763.84;;;2.06;100.00
5500;BME280;2772;42.700;23.304;2023-01-28T06:53:49;94772.25;;;2.03;100.00
5500;BME280;2772;42.700;23.304;2023-01-28T06:56:16;94775.38;;;1.90;100.00
5500;BME280;2772;42.700;23.304;2023-01-28T06:58:44;94764.09;;;1.94;100.00
5500;BME280;2772;42.700;23.304;2023-01-28T07:01:11;94767.50;;;1.95;100.00
5500;BME280;2772;42.700;23.304;2023-01-28T07:03:38;94771.72;;;2.06;100.00
5500;BME280;2772;42.700;23.304;2023-01-28T07:06:05;94771.97;;;1.99;100.00
5500;BME280;2772;42.700;23.304;2023-01-28T07:08:31;94773.81;;;2.04;100.00
5500;BME280;2772;42.700;23.304;2023-01-28T07:10:58;94781.19;;;2.07;100.00
5500;BME280;2772;42.700;23.304;2023-01-28T07:13:25;94774.84;;;1.93;100.00
5500;BME280;2772;42.700;23.304;2023-01-28T07:15:53;94790.34;;;1.94;100.00
5500;BME280;2772;42.700;23.304;2023-01-28T07:18:20;94789.06;;;1.97;100.00
5500;BME280;2772;42.700;23.304;2023-01-28T07:20:47;94794.56;;;1.90;100.00
5500;BME280;2772;42.700;23.304;2023-01-28T07:23:14;94794.28;;;1.92;100.00
5500;BME280;2772;42.700;23.304;2023-01-28T07:25:41;94794.31;;;2.07;100.00
5500;BME280;2772;42.700;23.304;2023-01-28T07:28:08;94798.25;;;2.24;100.00
5500;BME280;2772;42.700;23.304;2023-01-28T07:30:35;94808.25;;;2.27;100.00
5500;BME280;2772;42.700;23.304;2023-01-28T07:33:03;94813.22;;;2.14;100.00
5500;BME280;2772;42.700;23.304;2023-01-28T07:35:30;94808.22;;;2.17;100.00
5500;BME280;2772;42.700;23.304;2023-01-28T07:37:58;94809.81;;;2.18;100.00
5500;BME280;2772;42.700;23.304;2023-01-28T07:40:26;94810.59;;;2.09;100.00
5500;BME280;2772;42.700;23.304;2023-01-28T07:42:53;94829.00;;;2.24;100.00
5500;BME280;2772;42.700;23.304;2023-01-28T07:45:21;94825.84;;;2.32;100.00
5500;BME280;2772;42.700;23.304;2023-01-28T07:47:53;94826.38;;;2.29;100.00
5500;BME280;2772;42.700;23.304;2023-01-28T07:50:21;94826.38;;;2.34;100.00
5500;BME280;2772;42.700;23.304;2023-01-28T07:52:48;94824.03;;;2.37;100.00
5500;BME280;2772;42.700;23.304;2023-01-28T07:55:15;94824.28;;;2.31;100.00
5500;BME280;2772;42.700;23.304;2023-01-28T07:57:49;94830.03;;;2.23;100.00
5500;BME280;2772;42.700;23.304;2023-01-28T08:00:17;94834.25;;;2.29;100.00
5500;BME280;2772;42.700;23.304;2023-01-28T08:02:44;94831.63;;;2.34;100.00
5500;BME280;2772;42.700;23.304;2023-01-28T08:05:14;94836.38;;;2.42;100.00
5500;BME280;2772;42.700;23.304;2023-01-28T08:07:43;94837.69;;;2.44;100.00
5500;BME280;2772;42.700;23.304;2023-01-28T08:10:10;94842.66;;;2.46;100.00
5500;BME280;2772;42.700;23.304;2023-01-28T08:12:37;94846.09;;;2.51;100.00
5500;BME280;2772;42.700;23.304;2023-01-28T08:15:05;94831.78;;;3.33;100.00
5500;BME280;2772;42.700;23.304;2023-01-28T08:17:32;94832.91;;;3.90;100.00
5500;BME280;2772;42.700;23.304;2023-01-28T08:19:59;94832.13;;;3.85;100.00
5500;BME280;2772;42.700;23.304;2023-01-28T08:22:26;94847.81;;;3.36;100.00
5500;BME280;2772;42.700;23.304;2023-01-28T08:24:54;94856.56;;;3.11;100.00
5500;BME280;2772;42.700;23.304;2023-01-28T08:27:21;94852.63;;;2.89;100.00
5500;BME280;2772;42.700;23.304;2023-01-28T08:29:48;94853.44;;;2.84;100.00
5500;BME280;2772;42.700;23.304;2023-01-28T08:32:15;94846.84;;;3.02;100.00
5500;BME280;2772;42.700;23.304;2023-01-28T08:34:42;94853.34;;;3.35;100.00
5500;BME280;2772;42.700;23.304;2023-01-28T08:37:08;94852.59;;;3.24;100.00
5500;BME280;2772;42.700;23.304;2023-01-28T08:39:35;94860.50;;;3.19;100.00
5500;BME280;2772;42.700;23.304;2023-01-28T08:42:04;94859.44;;;3.30;100.00
5500;BME280;2772;42.700;23.304;2023-01-28T08:44:31;94873.91;;;3.22;100.00
5500;BME280;2772;42.700;23.304;2023-01-28T08:46:58;94869.41;;;3.33;100.00
5500;BME280;2772;42.700;23.304;2023-01-28T08:49:25;94863.66;;;3.11;100.00
5500;BME280;2772;42.700;23.304;2023-01-28T08:51:52;94865.00;;;3.13;100.00
5500;BME280;2772;42.700;23.304;2023-01-28T08:54:19;94864.19;;;3.23;100.00
5500;BME280;2772;42.700;23.304;2023-01-28T08:56:46;94869.41;;;3.38;100.00
5500;BME280;2772;42.700;23.304;2023-01-28T08:59:15;94870.00;;;3.20;100.00
5500;BME280;2772;42.700;23.304;2023-01-28T09:01:41;94879.97;;;3.13;100.00
5500;BME280;2772;42.700;23.304;2023-01-28T09:04:08;94874.41;;;3.29;100.00
5500;BME280;2772;42.700;23.304;2023-01-28T09:06:35;94875.25;;;3.15;100.00
5500;BME280;2772;42.700;23.304;2023-01-28T09:09:02;94873.13;;;3.17;100.00
5500;BME280;2772;42.700;23.304;2023-01-28T09:11:29;94870.25;;;3.13;100.00
5500;BME280;2772;42.700;23.304;2023-01-28T09:13:56;94867.63;;;3.13;100.00
5500;BME280;2772;42.700;23.304;2023-01-28T09:16:24;94872.63;;;3.15;100.00
5500;BME280;2772;42.700;23.304;2023-01-28T09:18:51;94881.53;;;3.29;100.00
5500;BME280;2772;42.700;23.304;2023-01-28T09:21:18;94883.09;;;3.25;100.00
5500;BME280;2772;42.700;23.304;2023-01-28T09:23:45;94884.44;;;3.28;100.00
5500;BME280;2772;42.700;23.304;2023-01-28T09:26:12;94866.50;;;3.40;100.00
5500;BME280;2772;42.700;23.304;2023-01-28T09:28:39;94864.13;;;3.43;100.00
5500;BME280;2772;42.700;23.304;2023-01-28T09:31:07;94878.31;;;3.57;100.00
5500;BME280;2772;42.700;23.304;2023-01-28T09:33:37;94873.59;;;3.49;100.00
5500;BME280;2772;42.700;23.304;2023-01-28T09:36:07;94875.22;;;3.30;100.00
5500;BME280;2772;42.700;23.304;2023-01-28T09:38:34;94876.78;;;3.31;100.00
5500;BME280;2772;42.700;23.304;2023-01-28T09:41:03;94878.13;;;3.23;100.00
5500;BME280;2772;42.700;23.304;2023-01-28T09:43:48;94874.94;;;3.37;100.00
5500;BME280;2772;42.700;23.304;2023-01-28T09:46:18;94876.50;;;3.43;100.00
5500;BME280;2772;42.700;23.304;2023-01-28T09:48:50;94876.25;;;3.39;100.00
5500;BME280;2772;42.700;23.304;2023-01-28T09:51:28;94875.75;;;3.27;100.00
5500;BME280;2772;42.700;23.304;2023-01-28T09:53:58;94883.13;;;3.10;100.00
5500;BME280;2772;42.700;23.304;2023-01-28T09:56:29;94875.50;;;2.98;100.00
5500;BME280;2772;42.700;23.304;2023-01-28T09:59:15;94879.97;;;3.03;100.00
5500;BME280;2772;42.700;23.304;2023-01-28T10:01:49;94864.72;;;3.05;100.00
5500;BME280;2772;42.700;23.304;2023-01-28T10:04:27;94876.84;;;3.06;100.00
5500;BME280;2772;42.700;23.304;2023-01-28T10:07:09;94876.28;;;3.14;100.00
5500;BME280;2772;42.700;23.304;2023-01-28T10:09:46;94872.09;;;3.03;100.00
5500;BME280;2772;42.700;23.304;2023-01-28T10:12:44;94870.00;;;3.00;100.00
5500;BME280;2772;42.700;23.304;2023-01-28T10:15:24;94867.38;;;2.90;100.00
5500;BME280;2772;42.700;23.304;2023-01-28T10:17:58;94863.69;;;2.96;100.00
5500;BME280;2772;42.700;23.304;2023-01-28T10:20:29;94866.59;;;2.99;100.00
5500;BME280;2772;42.700;23.304;2023-01-28T10:23:01;94858.94;;;3.13;100.00
5500;BME280;2772;42.700;23.304;2023-01-28T10:25:30;94870.25;;;3.08;100.00
5500;BME280;2772;42.700;23.304;2023-01-28T10:27:59;94862.63;;;3.02;100.00
5500;BME280;2772;42.700;23.304;2023-01-28T10:30:29;94861.06;;;3.01;100.00
5500;BME280;2772;42.700;23.304;2023-01-28T10:33:00;94867.91;;;3.12;100.00
5500;BME280;2772;42.700;23.304;2023-01-28T10:35:34;94873.38;;;3.15;100.00
5500;BME280;2772;42.700;23.304;2023-01-28T10:38:05;94865.50;;;3.15;100.00
5500;BME280;2772;42.700;23.304;2023-01-28T10:40:33;94863.44;;;3.02;100.00
5500;BME280;2772;42.700;23.304;2023-01-28T10:43:00;94866.03;;;3.22;100.00
5500;BME280;2772;42.700;23.304;2023-01-28T10:45:30;94856.31;;;3.23;100.00
5500;BME280;2772;42.700;23.304;2023-01-28T10:48:01;94859.69;;;3.23;100.00
5500;BME280;2772;42.700;23.304;2023-01-28T10:50:30;94859.41;;;3.35;100.00
5500;BME280;2772;42.700;23.304;2023-01-28T10:53:00;94855.72;;;3.46;100.00
5500;BME280;2772;42.700;23.304;2023-01-28T10:55:29;94860.19;;;3.41;100.00
5500;BME280;2772;42.700;23.304;2023-01-28T10:57:57;94855.72;;;3.31;100.00
5500;BME280;2772;42.700;23.304;2023-01-28T11:00:26;94856.56;;;3.16;100.00
5500;BME280;2772;42.700;23.304;2023-01-28T11:02:55;94860.28;;;3.10;100.00
5500;BME280;2772;42.700;23.304;2023-01-28T11:05:24;94863.13;;;3.14;100.00
5500;BME280;2772;42.700;23.304;2023-01-28T11:08:04;94861.78;;;3.32;100.00
5500;BME280;2772;42.700;23.304;2023-01-28T11:10:34;94856.53;;;3.26;100.00
5500;BME280;2772;42.700;23.304;2023-01-28T11:13:03;94861.47;;;3.53;100.00
5500;BME280;2772;42.700;23.304;2023-01-28T11:15:30;94853.81;;;3.57;100.00
5500;BME280;2772;42.700;23.304;2023-01-28T11:17:59;94865.16;;;3.57;100.00
5500;BME280;2772;42.700;23.304;2023-01-28T11:20:29;94867.25;;;3.55;100.00
5500;BME280;2772;42.700;23.304;2023-01-28T11:22:57;94865.66;;;3.59;100.00
5500;BME280;2772;42.700;23.304;2023-01-28T11:25:29;94848.09;;;3.40;100.00
5500;BME280;2772;42.700;23.304;2023-01-28T11:27:57;94848.81;;;3.60;100.00
5500;BME280;2772;42.700;23.304;2023-01-28T11:30:26;94862.78;;;3.51;100.00
5500;BME280;2772;42.700;23.304;2023-01-28T11:32:56;94856.72;;;3.55;100.00
5500;BME280;2772;42.700;23.304;2023-01-28T11:35:25;94857.19;;;3.67;100.00
5500;BME280;2772;42.700;23.304;2023-01-28T11:37:54;94865.09;;;3.72;100.00
5500;BME280;2772;42.700;23.304;2023-01-28T11:40:21;94855.91;;;3.70;100.00
5500;BME280;2772;42.700;23.304;2023-01-28T11:42:50;94842.47;;;3.66;100.00
5500;BME280;2772;42.700;23.304;2023-01-28T11:45:21;94844.22;;;3.86;100.00
5500;BME280;2772;42.700;23.304;2023-01-28T11:47:59;94850.19;;;4.01;100.00
5500;BME280;2772;42.700;23.304;2023-01-28T11:50:38;94840.25;;;3.93;100.00
5500;BME280;2772;42.700;23.304;2023-01-28T11:53:49;94851.78;;;4.02;100.00
5500;BME280;2772;42.700;23.304;2023-01-28T11:56:45;94842.56;;;4.05;100.00
5500;BME280;2772;42.700;23.304;2023-01-28T12:02:28;94845.53;;;3.88;100.00
5500;BME280;2772;42.700;23.304;2023-01-28T12:05:18;94843.81;;;4.12;100.00
5500;BME280;2772;42.700;23.304;2023-01-28T12:07:53;94853.50;;;4.22;100.00
5500;BME280;2772;42.700;23.304;2023-01-28T12:10:26;94850.41;;;4.15;100.00
5500;BME280;2772;42.700;23.304;2023-01-28T12:13:09;94850.44;;;4.10;100.00
5500;BME280;2772;42.700;23.304;2023-01-28T12:15:54;94851.28;;;3.95;100.00
5500;BME280;2772;42.700;23.304;2023-01-28T12:18:42;94848.63;;;4.00;100.00
5500;BME280;2772;42.700;23.304;2023-01-28T12:21:22;94846.78;;;4.06;100.00
5500;BME280;2772;42.700;23.304;2023-01-28T12:24:01;94848.69;;;3.90;100.00
5500;BME280;2772;42.700;23.304;2023-01-28T12:26:34;94848.22;;;3.73;100.00
5500;BME280;2772;42.700;23.304;2023-01-28T12:29:17;94849.47;;;3.91;100.00
5500;BME280;2772;42.700;23.304;2023-01-28T12:32:10;94852.84;;;4.01;100.00
5500;BME280;2772;42.700;23.304;2023-01-28T12:35:01;94862.34;;;4.02;100.00
5500;BME280;2772;42.700;23.304;2023-01-28T12:37:42;94869.78;;;3.90;100.00
5500;BME280;2772;42.700;23.304;2023-01-28T12:40:28;94868.72;;;3.81;100.00
5500;BME280;2772;42.700;23.304;2023-01-28T12:43:02;94867.72;;;3.77;100.00
5500;BME280;2772;42.700;23.304;2023-01-28T12:45:36;94881.41;;;3.74;100.00
5500;BME280;2772;42.700;23.304;2023-01-28T12:48:10;94868.72;;;3.81;100.00
5500;BME280;2772;42.700;23.304;2023-01-28T12:50:45;94871.88;;;3.93;100.00
5500;BME280;2772;42.700;23.304;2023-01-28T12:53:21;94882.09;;;4.00;100.00
5500;BME280;2772;42.700;23.304;2023-01-28T12:55:53;94883.97;;;3.89;100.00
5500;BME280;2772;42.700;23.304;2023-01-28T12:58:25;94882.09;;;4.00;100.00
5500;BME280;2772;42.700;23.304;2023-01-28T13:01:00;94874.97;;;4.00;100.00
5500;BME280;2772;42.700;23.304;2023-01-28T13:03:34;94877.09;;;3.98;100.00
5500;BME280;2772;42.700;23.304;2023-01-28T13:06:08;94880.56;;;3.89;100.00
5500;BME280;2772;42.700;23.304;2023-01-28T13:08:36;94885.22;;;4.07;100.00
5500;BME280;2772;42.700;23.304;2023-01-28T13:11:04;94878.63;;;4.09;100.00
5500;BME280;2772;42.700;23.304;2023-01-28T13:13:34;94881.25;;;4.09;100.00
5500;BME280;2772;42.700;23.304;2023-01-28T13:16:02;94894.13;;;4.21;100.00
5500;BME280;2772;42.700;23.304;2023-01-28T13:18:32;94881.69;;;4.26;100.00
5500;BME280;2772;42.700;23.304;2023-01-28T13:21:00;94888.59;;;4.17;100.00
5500;BME280;2772;42.700;23.304;2023-01-28T13:23:38;94891.72;;;4.24;100.00
5500;BME280;2772;42.700;23.304;2023-01-28T13:26:29;94893.84;;;4.22;100.00
5500;BME280;2772;42.700;23.304;2023-01-28T13:29:21;94890.75;;;4.10;100.00
5500;BME280;2772;42.700;23.304;2023-01-28T13:31:54;94913.13;;;4.08;100.00
5500;BME280;2772;42.700;23.304;2023-01-28T13:34:33;94901.38;;;3.90;100.00